sensor_id;sensor_type;location;lat;lon;timestamp;P1;durP1;ratioP1;P2;durP2;ratioP2
79670;SDS011;69137;50.878;8.050;2023-05-16T00:00:02;24.02;;;14.48;;
79670;SDS011;69137;50.878;8.050;2023-05-16T00:02:30;19.80;;;13.98;;
79670;SDS011;69137;50.878;8.050;2023-05-16T00:04:56;21.30;;;13.88;;
79670;SDS011;69137;50.878;8.050;2023-05-16T00:07:22;26.58;;;14.70;;
79670;SDS011;69137;50.878;8.050;2023-05-16T00:09:48;22.08;;;14.25;;
79670;SDS011;69137;50.878;8.050;2023-05-16T00:12:13;24.25;;;14.90;;
79670;SDS011;69137;50.878;8.050;2023-05-16T00:14:39;22.63;;;15.32;;
79670;SDS011;69137;50.878;8.050;2023-05-16T00:17:04;23.38;;;14.93;;
79670;SDS011;69137;50.878;8.050;2023-05-16T00:19:36;24.40;;;15.35;;
79670;SDS011;69137;50.878;8.050;2023-05-16T00:22:03;22.80;;;15.00;;
79670;SDS011;69137;50.878;8.050;2023-05-16T00:24:29;25.02;;;15.57;;
79670;SDS011;69137;50.878;8.050;2023-05-16T00:26:55;24.08;;;14.45;;
79670;SDS011;69137;50.878;8.050;2023-05-16T00:29:20;23.38;;;14.32;;
79670;SDS011;69137;50.878;8.050;2023-05-16T00:31:48;23.02;;;14.98;;
79670;SDS011;69137;50.878;8.050;2023-05-16T00:34:13;24.38;;;14.77;;
79670;SDS011;69137;50.878;8.050;2023-05-16T00:36:39;27.25;;;14.63;;
79670;SDS011;69137;50.878;8.050;2023-05-16T00:39:04;19.95;;;14.55;;
79670;SDS011;69137;50.878;8.050;2023-05-16T00:41:30;22.70;;;15.23;;
79670;SDS011;69137;50.878;8.050;2023-05-16T00:43:55;23.17;;;15.00;;
79670;SDS011;69137;50.878;8.050;2023-05-16T00:46:21;24.40;;;14.93;;
79670;SDS011;69137;50.878;8.050;2023-05-16T00:48:46;23.05;;;14.90;;
79670;SDS011;69137;50.878;8.050;2023-05-16T00:51:12;26.45;;;15.52;;
79670;SDS011;69137;50.878;8.050;2023-05-16T00:53:38;23.70;;;14.77;;
79670;SDS011;69137;50.878;8.050;2023-05-16T00:56:04;22.05;;;14.70;;
79670;SDS011;69137;50.878;8.050;2023-05-16T00:58:30;20.35;;;13.98;;
79670;SDS011;69137;50.878;8.050;2023-05-16T01:00:58;25.48;;;14.00;;
79670;SDS011;69137;50.878;8.050;2023-05-16T01:05:51;18.90;;;12.32;;
79670;SDS011;69137;50.878;8.050;2023-05-16T01:08:17;23.98;;;15.35;;
79670;SDS011;69137;50.878;8.050;2023-05-16T01:10:48;20.48;;;13.85;;
79670;SDS011;69137;50.878;8.050;2023-05-16T01:13:40;21.52;;;14.52;;
79670;SDS011;69137;50.878;8.050;2023-05-16T01:22:10;29.40;;;15.73;;
79670;SDS011;69137;50.878;8.050;2023-05-16T01:25:11;28.48;;;15.57;;
79670;SDS011;69137;50.878;8.050;2023-05-16T01:27:49;30.70;;;17.85;;
79670;SDS011;69137;50.878;8.050;2023-05-16T01:30:17;31.50;;;17.40;;
79670;SDS011;69137;50.878;8.050;2023-05-16T01:32:44;33.83;;;18.80;;
79670;SDS011;69137;50.878;8.050;2023-05-16T01:35:10;35.80;;;17.50;;
79670;SDS011;69137;50.878;8.050;2023-05-16T01:37:57;32.40;;;17.92;;
79670;SDS011;69137;50.878;8.050;2023-05-16T01:40:36;33.90;;;18.15;;
79670;SDS011;69137;50.878;8.050;2023-05-16T01:43:10;36.50;;;17.65;;
79670;SDS011;69137;50.878;8.050;2023-05-16T01:45:43;31.92;;;18.02;;
79670;SDS011;69137;50.878;8.050;2023-05-16T01:48:21;32.22;;;18.27;;
79670;SDS011;69137;50.878;8.050;2023-05-16T01:50:53;33.15;;;18.85;;
79670;SDS011;69137;50.878;8.050;2023-05-16T01:53:27;34.53;;;19.17;;
79670;SDS011;69137;50.878;8.050;2023-05-16T01:55:58;28.25;;;15.85;;
79670;SDS011;69137;50.878;8.050;2023-05-16T02:00:53;27.60;;;15.43;;
79670;SDS011;69137;50.878;8.050;2023-05-16T02:03:18;26.15;;;14.50;;
79670;SDS011;69137;50.878;8.050;2023-05-16T02:05:44;33.20;;;18.25;;
79670;SDS011;69137;50.878;8.050;2023-05-16T02:08:09;32.25;;;14.90;;
79670;SDS011;69137;50.878;8.050;2023-05-16T02:10:35;26.35;;;13.88;;
79670;SDS011;69137;50.878;8.050;2023-05-16T02:13:00;22.02;;;12.88;;
79670;SDS011;69137;50.878;8.050;2023-05-16T02:15:26;26.73;;;13.57;;
79670;SDS011;69137;50.878;8.050;2023-05-16T02:17:54;10.77;;;6.93;;
79670;SDS011;69137;50.878;8.050;2023-05-16T02:20:19;8.82;;;4.65;;
79670;SDS011;69137;50.878;8.050;2023-05-16T02:22:45;8.48;;;4.85;;
79670;SDS011;69137;50.878;8.050;2023-05-16T02:25:12;6.30;;;4.18;;
79670;SDS011;69137;50.878;8.050;2023-05-16T02:27:38;7.50;;;4.20;;
79670;SDS011;69137;50.878;8.050;2023-05-16T02:30:04;7.00;;;4.07;;
79670;SDS011;69137;50.878;8.050;2023-05-16T02:32:31;5.85;;;3.28;;
79670;SDS011;69137;50.878;8.050;2023-05-16T02:34:56;4.45;;;2.60;;
79670;SDS011;69137;50.878;8.050;2023-05-16T02:37:22;3.13;;;2.03;;
79670;SDS011;69137;50.878;8.050;2023-05-16T02:39:47;5.82;;;1.60;;
79670;SDS011;69137;50.878;8.050;2023-05-16T02:42:13;2.83;;;1.70;;
79670;SDS011;69137;50.878;8.050;2023-05-16T02:44:38;2.75;;;1.63;;
79670;SDS011;69137;50.878;8.050;2023-05-16T02:47:03;2.88;;;1.65;;
79670;SDS011;69137;50.878;8.050;2023-05-16T02:49:29;2.70;;;1.98;;
79670;SDS011;69137;50.878;8.050;2023-05-16T02:51:55;3.33;;;1.55;;
79670;SDS011;69137;50.878;8.050;2023-05-16T02:54:20;2.15;;;1.35;;
79670;SDS011;69137;50.878;8.050;2023-05-16T02:56:45;2.63;;;1.60;;
79670;SDS011;69137;50.878;8.050;2023-05-16T02:59:11;1.85;;;1.23;;
79670;SDS011;69137;50.878;8.050;2023-05-16T03:01:38;2.20;;;1.50;;
79670;SDS011;69137;50.878;8.050;2023-05-16T03:04:04;2.45;;;1.50;;
79670;SDS011;69137;50.878;8.050;2023-05-16T03:06:30;2.20;;;1.50;;
79670;SDS011;69137;50.878;8.050;2023-05-16T03:08:56;6.15;;;1.98;;
79670;SDS011;69137;50.878;8.050;2023-05-16T03:11:21;2.08;;;1.40;;
79670;SDS011;69137;50.878;8.050;2023-05-16T03:13:48;2.20;;;1.50;;
79670;SDS011;69137;50.878;8.050;2023-05-16T03:16:14;2.45;;;1.55;;
79670;SDS011;69137;50.878;8.050;2023-05-16T03:18:40;3.00;;;1.85;;
79670;SDS011;69137;50.878;8.050;2023-05-16T03:21:06;2.20;;;1.33;;
79670;SDS011;69137;50.878;8.050;2023-05-16T03:23:31;2.95;;;1.55;;
79670;SDS011;69137;50.878;8.050;2023-05-16T03:25:57;3.97;;;1.52;;
79670;SDS011;69137;50.878;8.050;2023-05-16T03:28:23;2.70;;;1.75;;
79670;SDS011;69137;50.878;8.050;2023-05-16T03:30:48;3.40;;;1.52;;
79670;SDS011;69137;50.878;8.050;2023-05-16T03:33:14;2.85;;;1.83;;
79670;SDS011;69137;50.878;8.050;2023-05-16T03:35:40;2.47;;;1.63;;
79670;SDS011;69137;50.878;8.050;2023-05-16T03:38:06;2.90;;;1.80;;
79670;SDS011;69137;50.878;8.050;2023-05-16T03:40:31;2.80;;;1.70;;
79670;SDS011;69137;50.878;8.050;2023-05-16T03:42:57;3.28;;;1.95;;
79670;SDS011;69137;50.878;8.050;2023-05-16T03:45:25;3.72;;;2.08;;
79670;SDS011;69137;50.878;8.050;2023-05-16T03:47:50;2.33;;;1.60;;
79670;SDS011;69137;50.878;8.050;2023-05-16T03:50:16;2.53;;;1.67;;
79670;SDS011;69137;50.878;8.050;2023-05-16T03:52:41;2.35;;;1.65;;
79670;SDS011;69137;50.878;8.050;2023-05-16T03:55:07;4.10;;;1.65;;
79670;SDS011;69137;50.878;8.050;2023-05-16T03:57:33;2.55;;;1.70;;
79670;SDS011;69137;50.878;8.050;2023-05-16T03:59:58;7.15;;;2.35;;
79670;SDS011;69137;50.878;8.050;2023-05-16T04:02:24;3.50;;;2.25;;
79670;SDS011;69137;50.878;8.050;2023-05-16T04:04:50;6.63;;;2.42;;
79670;SDS011;69137;50.878;8.050;2023-05-16T04:07:15;3.10;;;2.13;;
79670;SDS011;69137;50.878;8.050;2023-05-16T04:09:41;4.82;;;2.83;;
79670;SDS011;69137;50.878;8.050;2023-05-16T04:12:06;3.80;;;2.35;;
79670;SDS011;69137;50.878;8.050;2023-05-16T04:14:33;3.65;;;2.17;;
79670;SDS011;69137;50.878;8.050;2023-05-16T04:16:59;4.07;;;2.50;;
79670;SDS011;69137;50.878;8.050;2023-05-16T04:19:25;4.25;;;2.38;;
79670;SDS011;69137;50.878;8.050;2023-05-16T04:21:50;3.63;;;2.35;;
79670;SDS011;69137;50.878;8.050;2023-05-16T04:24:16;3.70;;;2.22;;
79670;SDS011;69137;50.878;8.050;2023-05-16T04:26:42;3.08;;;2.03;;
79670;SDS011;69137;50.878;8.050;2023-05-16T04:29:07;3.67;;;1.80;;
79670;SDS011;69137;50.878;8.050;2023-05-16T04:31:33;2.97;;;1.67;;
79670;SDS011;69137;50.878;8.050;2023-05-16T04:33:58;3.83;;;1.88;;
79670;SDS011;69137;50.878;8.050;2023-05-16T04:36:24;3.58;;;1.55;;
79670;SDS011;69137;50.878;8.050;2023-05-16T04:38:50;2.58;;;1.30;;
79670;SDS011;69137;50.878;8.050;2023-05-16T04:41:16;2.17;;;1.33;;
79670;SDS011;69137;50.878;8.050;2023-05-16T04:43:42;4.25;;;1.58;;
79670;SDS011;69137;50.878;8.050;2023-05-16T04:46:08;4.40;;;1.60;;
79670;SDS011;69137;50.878;8.050;2023-05-16T04:48:34;1.77;;;1.17;;
79670;SDS011;69137;50.878;8.050;2023-05-16T04:50:59;2.08;;;1.35;;
79670;SDS011;69137;50.878;8.050;2023-05-16T04:53:25;1.23;;;1.00;;
79670;SDS011;69137;50.878;8.050;2023-05-16T04:55:50;2.28;;;1.20;;
79670;SDS011;69137;50.878;8.050;2023-05-16T04:58:16;5.13;;;1.10;;
79670;SDS011;69137;50.878;8.050;2023-05-16T05:00:42;2.80;;;1.50;;
79670;SDS011;69137;50.878;8.050;2023-05-16T05:03:07;0.82;;;0.70;;
79670;SDS011;69137;50.878;8.050;2023-05-16T05:05:33;2.80;;;1.20;;
79670;SDS011;69137;50.878;8.050;2023-05-16T05:07:58;1.63;;;1.05;;
79670;SDS011;69137;50.878;8.050;2023-05-16T05:10:25;2.92;;;1.30;;
79670;SDS011;69137;50.878;8.050;2023-05-16T05:12:51;1.45;;;1.00;;
79670;SDS011;69137;50.878;8.050;2023-05-16T05:15:18;2.58;;;1.38;;
79670;SDS011;69137;50.878;8.050;2023-05-16T05:17:43;1.15;;;0.90;;
79670;SDS011;69137;50.878;8.050;2023-05-16T05:20:09;3.17;;;1.13;;
79670;SDS011;69137;50.878;8.050;2023-05-16T05:22:36;1.05;;;0.80;;
79670;SDS011;69137;50.878;8.050;2023-05-16T05:25:01;1.58;;;0.93;;
79670;SDS011;69137;50.878;8.050;2023-05-16T05:27:27;1.92;;;1.23;;
79670;SDS011;69137;50.878;8.050;2023-05-16T05:29:52;2.08;;;1.00;;
79670;SDS011;69137;50.878;8.050;2023-05-16T05:32:18;3.90;;;1.00;;
79670;SDS011;69137;50.878;8.050;2023-05-16T05:34:43;1.73;;;1.05;;
79670;SDS011;69137;50.878;8.050;2023-05-16T05:37:08;3.55;;;1.30;;
79670;SDS011;69137;50.878;8.050;2023-05-16T05:39:34;4.95;;;1.40;;
79670;SDS011;69137;50.878;8.050;2023-05-16T05:42:00;3.40;;;1.05;;
79670;SDS011;69137;50.878;8.050;2023-05-16T05:44:27;2.53;;;1.42;;
79670;SDS011;69137;50.878;8.050;2023-05-16T05:46:53;2.17;;;1.20;;
79670;SDS011;69137;50.878;8.050;2023-05-16T05:49:19;2.03;;;1.27;;
79670;SDS011;69137;50.878;8.050;2023-05-16T05:51:44;1.48;;;1.05;;
79670;SDS011;69137;50.878;8.050;2023-05-16T05:54:11;6.93;;;1.70;;
79670;SDS011;69137;50.878;8.050;2023-05-16T05:56:37;3.70;;;1.50;;
79670;SDS011;69137;50.878;8.050;2023-05-16T05:59:02;2.92;;;1.48;;
79670;SDS011;69137;50.878;8.050;2023-05-16T06:01:28;4.60;;;1.80;;
79670;SDS011;69137;50.878;8.050;2023-05-16T06:03:53;3.30;;;1.50;;
79670;SDS011;69137;50.878;8.050;2023-05-16T06:06:19;3.38;;;1.45;;
79670;SDS011;69137;50.878;8.050;2023-05-16T06:08:44;3.35;;;1.48;;
79670;SDS011;69137;50.878;8.050;2023-05-16T06:11:10;2.58;;;1.55;;
79670;SDS011;69137;50.878;8.050;2023-05-16T06:13:35;2.50;;;1.60;;
79670;SDS011;69137;50.878;8.050;2023-05-16T06:16:01;4.78;;;1.90;;
79670;SDS011;69137;50.878;8.050;2023-05-16T06:18:26;4.30;;;1.75;;
79670;SDS011;69137;50.878;8.050;2023-05-16T06:20:51;3.45;;;1.67;;
79670;SDS011;69137;50.878;8.050;2023-05-16T06:23:17;2.67;;;1.77;;
79670;SDS011;69137;50.878;8.050;2023-05-16T06:25:42;4.38;;;2.00;;
79670;SDS011;69137;50.878;8.050;2023-05-16T06:28:08;3.92;;;1.88;;
79670;SDS011;69137;50.878;8.050;2023-05-16T06:30:33;6.25;;;2.15;;
79670;SDS011;69137;50.878;8.050;2023-05-16T06:32:59;4.10;;;2.13;;
79670;SDS011;69137;50.878;8.050;2023-05-16T06:35:24;11.32;;;2.40;;
79670;SDS011;69137;50.878;8.050;2023-05-16T06:37:50;5.85;;;2.03;;
79670;SDS011;69137;50.878;8.050;2023-05-16T06:40:15;8.35;;;2.40;;
79670;SDS011;69137;50.878;8.050;2023-05-16T06:42:43;4.90;;;1.92;;
79670;SDS011;69137;50.878;8.050;2023-05-16T06:45:08;6.38;;;2.60;;
79670;SDS011;69137;50.878;8.050;2023-05-16T06:47:34;4.45;;;2.80;;
79670;SDS011;69137;50.878;8.050;2023-05-16T06:50:00;13.95;;;2.75;;
79670;SDS011;69137;50.878;8.050;2023-05-16T06:52:26;6.20;;;2.45;;
79670;SDS011;69137;50.878;8.050;2023-05-16T06:54:52;6.75;;;2.30;;
79670;SDS011;69137;50.878;8.050;2023-05-16T06:57:17;11.27;;;2.63;;
79670;SDS011;69137;50.878;8.050;2023-05-16T06:59:43;12.90;;;2.80;;
79670;SDS011;69137;50.878;8.050;2023-05-16T07:02:08;9.88;;;2.60;;
79670;SDS011;69137;50.878;8.050;2023-05-16T07:04:34;8.48;;;2.80;;
79670;SDS011;69137;50.878;8.050;2023-05-16T07:07:02;8.45;;;2.50;;
79670;SDS011;69137;50.878;8.050;2023-05-16T07:09:28;10.52;;;2.25;;
79670;SDS011;69137;50.878;8.050;2023-05-16T07:11:53;8.02;;;2.30;;
79670;SDS011;69137;50.878;8.050;2023-05-16T07:14:18;9.13;;;2.47;;
79670;SDS011;69137;50.878;8.050;2023-05-16T07:16:44;11.20;;;2.70;;
79670;SDS011;69137;50.878;8.050;2023-05-16T07:19:09;8.60;;;2.35;;
79670;SDS011;69137;50.878;8.050;2023-05-16T07:21:35;6.72;;;2.05;;
79670;SDS011;69137;50.878;8.050;2023-05-16T07:24:00;10.27;;;2.63;;
79670;SDS011;69137;50.878;8.050;2023-05-16T07:26:26;9.65;;;2.50;;
79670;SDS011;69137;50.878;8.050;2023-05-16T07:28:51;6.95;;;2.65;;
79670;SDS011;69137;50.878;8.050;2023-05-16T07:31:17;8.15;;;3.10;;
79670;SDS011;69137;50.878;8.050;2023-05-16T07:33:42;3.10;;;1.95;;
79670;SDS011;69137;50.878;8.050;2023-05-16T07:36:10;4.15;;;2.05;;
79670;SDS011;69137;50.878;8.050;2023-05-16T07:38:36;6.72;;;1.60;;
79670;SDS011;69137;50.878;8.050;2023-05-16T07:41:02;5.50;;;2.00;;
79670;SDS011;69137;50.878;8.050;2023-05-16T07:43:27;9.13;;;2.28;;
79670;SDS011;69137;50.878;8.050;2023-05-16T07:45:53;6.45;;;1.80;;
79670;SDS011;69137;50.878;8.050;2023-05-16T07:48:18;5.10;;;2.35;;
79670;SDS011;69137;50.878;8.050;2023-05-16T07:50:44;10.50;;;2.60;;
79670;SDS011;69137;50.878;8.050;2023-05-16T07:53:09;9.55;;;2.20;;
79670;SDS011;69137;50.878;8.050;2023-05-16T07:55:35;5.75;;;1.70;;
79670;SDS011;69137;50.878;8.050;2023-05-16T07:58:00;6.40;;;1.85;;
79670;SDS011;69137;50.878;8.050;2023-05-16T08:00:27;4.53;;;1.65;;
79670;SDS011;69137;50.878;8.050;2023-05-16T08:02:53;5.90;;;1.95;;
79670;SDS011;69137;50.878;8.050;2023-05-16T08:05:18;11.48;;;2.22;;
79670;SDS011;69137;50.878;8.050;2023-05-16T08:07:43;13.60;;;1.75;;
79670;SDS011;69137;50.878;8.050;2023-05-16T08:10:09;7.43;;;1.90;;
79670;SDS011;69137;50.878;8.050;2023-05-16T08:12:35;17.10;;;2.50;;
79670;SDS011;69137;50.878;8.050;2023-05-16T08:15:00;5.20;;;1.75;;
79670;SDS011;69137;50.878;8.050;2023-05-16T08:17:26;6.65;;;1.80;;
79670;SDS011;69137;50.878;8.050;2023-05-16T08:19:52;5.55;;;1.70;;
79670;SDS011;69137;50.878;8.050;2023-05-16T08:22:18;9.88;;;2.30;;
79670;SDS011;69137;50.878;8.050;2023-05-16T08:24:43;6.90;;;2.08;;
79670;SDS011;69137;50.878;8.050;2023-05-16T08:27:08;10.05;;;2.53;;
79670;SDS011;69137;50.878;8.050;2023-05-16T08:29:35;4.75;;;1.88;;
79670;SDS011;69137;50.878;8.050;2023-05-16T08:32:01;4.93;;;1.58;;
79670;SDS011;69137;50.878;8.050;2023-05-16T08:34:26;7.13;;;1.50;;
79670;SDS011;69137;50.878;8.050;2023-05-16T08:36:51;11.52;;;2.03;;
79670;SDS011;69137;50.878;8.050;2023-05-16T08:39:18;5.32;;;1.45;;
79670;SDS011;69137;50.878;8.050;2023-05-16T08:41:44;6.30;;;1.30;;
79670;SDS011;69137;50.878;8.050;2023-05-16T08:44:09;5.90;;;1.60;;
79670;SDS011;69137;50.878;8.050;2023-05-16T08:46:36;5.75;;;1.80;;
79670;SDS011;69137;50.878;8.050;2023-05-16T08:49:05;6.20;;;1.77;;
79670;SDS011;69137;50.878;8.050;2023-05-16T08:51:32;11.35;;;3.38;;
79670;SDS011;69137;50.878;8.050;2023-05-16T08:54:02;6.32;;;1.73;;
79670;SDS011;69137;50.878;8.050;2023-05-16T08:56:30;6.95;;;1.83;;
79670;SDS011;69137;50.878;8.050;2023-05-16T09:01:24;3.47;;;1.50;;
79670;SDS011;69137;50.878;8.050;2023-05-16T09:03:50;5.95;;;1.33;;
79670;SDS011;69137;50.878;8.050;2023-05-16T09:06:16;4.60;;;1.58;;
79670;SDS011;69137;50.878;8.050;2023-05-16T09:08:41;3.30;;;1.65;;
79670;SDS011;69137;50.878;8.050;2023-05-16T09:11:07;6.82;;;1.55;;
79670;SDS011;69137;50.878;8.050;2023-05-16T09:13:33;5.18;;;1.42;;
79670;SDS011;69137;50.878;8.050;2023-05-16T09:16:12;2.65;;;1.35;;
79670;SDS011;69137;50.878;8.050;2023-05-16T09:18:39;4.25;;;1.45;;
79670;SDS011;69137;50.878;8.050;2023-05-16T09:21:07;5.93;;;1.83;;
79670;SDS011;69137;50.878;8.050;2023-05-16T09:23:34;7.43;;;1.90;;
79670;SDS011;69137;50.878;8.050;2023-05-16T09:26:00;5.47;;;1.58;;
79670;SDS011;69137;50.878;8.050;2023-05-16T09:28:26;11.10;;;1.73;;
79670;SDS011;69137;50.878;8.050;2023-05-16T09:30:52;7.32;;;1.75;;
79670;SDS011;69137;50.878;8.050;2023-05-16T09:33:21;7.57;;;2.15;;
79670;SDS011;69137;50.878;8.050;2023-05-16T09:35:57;8.60;;;1.73;;
79670;SDS011;69137;50.878;8.050;2023-05-16T09:38:24;2.90;;;1.30;;
79670;SDS011;69137;50.878;8.050;2023-05-16T09:40:55;4.35;;;1.23;;
79670;SDS011;69137;50.878;8.050;2023-05-16T09:43:24;2.88;;;1.23;;
79670;SDS011;69137;50.878;8.050;2023-05-16T09:45:50;5.93;;;1.63;;
79670;SDS011;69137;50.878;8.050;2023-05-16T09:48:17;5.47;;;1.60;;
79670;SDS011;69137;50.878;8.050;2023-05-16T09:50:49;6.40;;;1.70;;
79670;SDS011;69137;50.878;8.050;2023-05-16T09:53:16;5.13;;;1.50;;
79670;SDS011;69137;50.878;8.050;2023-05-16T09:55:43;9.57;;;1.83;;
79670;SDS011;69137;50.878;8.050;2023-05-16T09:58:08;4.70;;;1.48;;
79670;SDS011;69137;50.878;8.050;2023-05-16T10:00:34;4.18;;;1.35;;
79670;SDS011;69137;50.878;8.050;2023-05-16T10:03:00;8.63;;;2.58;;
79670;SDS011;69137;50.878;8.050;2023-05-16T10:05:29;4.97;;;1.40;;
79670;SDS011;69137;50.878;8.050;2023-05-16T10:07:56;3.63;;;1.30;;
79670;SDS011;69137;50.878;8.050;2023-05-16T10:10:26;4.68;;;1.55;;
79670;SDS011;69137;50.878;8.050;2023-05-16T10:12:52;6.07;;;1.38;;
79670;SDS011;69137;50.878;8.050;2023-05-16T10:15:22;5.38;;;1.67;;
79670;SDS011;69137;50.878;8.050;2023-05-16T10:17:49;7.20;;;1.63;;
79670;SDS011;69137;50.878;8.050;2023-05-16T10:22:44;3.65;;;1.33;;
79670;SDS011;69137;50.878;8.050;2023-05-16T10:25:16;5.70;;;1.40;;
79670;SDS011;69137;50.878;8.050;2023-05-16T10:27:48;4.75;;;1.40;;
79670;SDS011;69137;50.878;8.050;2023-05-16T10:30:14;4.78;;;1.05;;
79670;SDS011;69137;50.878;8.050;2023-05-16T10:32:41;8.25;;;1.52;;
79670;SDS011;69137;50.878;8.050;2023-05-16T10:35:07;3.30;;;1.52;;
79670;SDS011;69137;50.878;8.050;2023-05-16T10:37:34;6.57;;;1.48;;
79670;SDS011;69137;50.878;8.050;2023-05-16T10:40:01;2.75;;;1.02;;
79670;SDS011;69137;50.878;8.050;2023-05-16T10:42:30;13.30;;;1.73;;
79670;SDS011;69137;50.878;8.050;2023-05-16T10:45:16;7.88;;;2.00;;
79670;SDS011;69137;50.878;8.050;2023-05-16T10:50:36;4.93;;;1.70;;
79670;SDS011;69137;50.878;8.050;2023-05-16T10:53:30;7.32;;;1.60;;
79670;SDS011;69137;50.878;8.050;2023-05-16T11:17:11;5.97;;;1.35;;
79670;SDS011;69137;50.878;8.050;2023-05-16T11:19:42;3.25;;;1.42;;
79670;SDS011;69137;50.878;8.050;2023-05-16T11:25:07;3.67;;;1.00;;
79670;SDS011;69137;50.878;8.050;2023-05-16T11:27:42;3.70;;;1.33;;
79670;SDS011;69137;50.878;8.050;2023-05-16T11:32:37;5.10;;;1.43;;
79670;SDS011;69137;50.878;8.050;2023-05-16T11:35:06;7.85;;;1.85;;
79670;SDS011;69137;50.878;8.050;2023-05-16T11:40:00;4.18;;;1.42;;
79670;SDS011;69137;50.878;8.050;2023-05-16T11:42:33;7.05;;;1.50;;
79670;SDS011;69137;50.878;8.050;2023-05-16T11:45:06;3.38;;;1.30;;
79670;SDS011;69137;50.878;8.050;2023-05-16T11:47:34;3.05;;;1.30;;
79670;SDS011;69137;50.878;8.050;2023-05-16T11:50:02;1.83;;;1.10;;
79670;SDS011;69137;50.878;8.050;2023-05-16T11:52:31;1.73;;;0.80;;
79670;SDS011;69137;50.878;8.050;2023-05-16T11:54:57;6.13;;;1.77;;
79670;SDS011;69137;50.878;8.050;2023-05-16T11:57:25;2.88;;;1.50;;
79670;SDS011;69137;50.878;8.050;2023-05-16T11:59:51;5.07;;;1.63;;
79670;SDS011;69137;50.878;8.050;2023-05-16T12:02:17;6.63;;;1.63;;
79670;SDS011;69137;50.878;8.050;2023-05-16T12:04:45;2.80;;;1.25;;
79670;SDS011;69137;50.878;8.050;2023-05-16T12:07:11;5.55;;;1.70;;
79670;SDS011;69137;50.878;8.050;2023-05-16T12:09:37;4.50;;;1.40;;
79670;SDS011;69137;50.878;8.050;2023-05-16T12:12:03;0.88;;;0.82;;
79670;SDS011;69137;50.878;8.050;2023-05-16T12:14:30;3.95;;;1.27;;
79670;SDS011;69137;50.878;8.050;2023-05-16T12:16:56;4.15;;;1.25;;
79670;SDS011;69137;50.878;8.050;2023-05-16T12:19:22;9.63;;;1.65;;
79670;SDS011;69137;50.878;8.050;2023-05-16T12:24:18;3.30;;;1.38;;
79670;SDS011;69137;50.878;8.050;2023-05-16T12:26:44;9.48;;;1.50;;
79670;SDS011;69137;50.878;8.050;2023-05-16T12:29:10;1.83;;;0.82;;
79670;SDS011;69137;50.878;8.050;2023-05-16T12:31:37;2.97;;;1.25;;
79670;SDS011;69137;50.878;8.050;2023-05-16T12:34:04;2.85;;;1.10;;
79670;SDS011;69137;50.878;8.050;2023-05-16T12:36:38;4.97;;;1.63;;
79670;SDS011;69137;50.878;8.050;2023-05-16T12:39:04;2.97;;;1.50;;
79670;SDS011;69137;50.878;8.050;2023-05-16T12:41:29;3.00;;;1.25;;
79670;SDS011;69137;50.878;8.050;2023-05-16T12:44:05;5.68;;;1.63;;
79670;SDS011;69137;50.878;8.050;2023-05-16T12:46:42;5.43;;;1.73;;
79670;SDS011;69137;50.878;8.050;2023-05-16T12:49:09;5.68;;;1.40;;
79670;SDS011;69137;50.878;8.050;2023-05-16T12:51:35;4.43;;;1.38;;
79670;SDS011;69137;50.878;8.050;2023-05-16T12:54:10;4.45;;;1.30;;
79670;SDS011;69137;50.878;8.050;2023-05-16T12:56:39;4.28;;;1.77;;
79670;SDS011;69137;50.878;8.050;2023-05-16T12:59:05;3.47;;;1.20;;
79670;SDS011;69137;50.878;8.050;2023-05-16T13:01:31;7.35;;;3.00;;
79670;SDS011;69137;50.878;8.050;2023-05-16T13:03:57;3.72;;;1.52;;
79670;SDS011;69137;50.878;8.050;2023-05-16T13:06:23;3.65;;;1.33;;
79670;SDS011;69137;50.878;8.050;2023-05-16T13:08:48;1.50;;;1.05;;
79670;SDS011;69137;50.878;8.050;2023-05-16T13:11:14;4.97;;;1.88;;
79670;SDS011;69137;50.878;8.050;2023-05-16T13:13:39;4.95;;;1.60;;
79670;SDS011;69137;50.878;8.050;2023-05-16T13:16:05;5.47;;;1.55;;
79670;SDS011;69137;50.878;8.050;2023-05-16T13:18:30;7.22;;;1.38;;
79670;SDS011;69137;50.878;8.050;2023-05-16T13:20:56;3.40;;;1.40;;
79670;SDS011;69137;50.878;8.050;2023-05-16T13:23:21;3.50;;;1.67;;
79670;SDS011;69137;50.878;8.050;2023-05-16T13:25:47;3.05;;;1.55;;
79670;SDS011;69137;50.878;8.050;2023-05-16T13:28:12;3.15;;;1.30;;
79670;SDS011;69137;50.878;8.050;2023-05-16T13:30:38;4.22;;;1.17;;
79670;SDS011;69137;50.878;8.050;2023-05-16T13:33:03;4.43;;;1.35;;
79670;SDS011;69137;50.878;8.050;2023-05-16T13:35:29;1.63;;;1.10;;
79670;SDS011;69137;50.878;8.050;2023-05-16T13:37:54;2.58;;;1.05;;
79670;SDS011;69137;50.878;8.050;2023-05-16T13:40:20;2.55;;;1.30;;
79670;SDS011;69137;50.878;8.050;2023-05-16T13:42:45;3.17;;;1.33;;
79670;SDS011;69137;50.878;8.050;2023-05-16T13:45:10;3.20;;;1.25;;
79670;SDS011;69137;50.878;8.050;2023-05-16T13:47:37;6.97;;;1.40;;
79670;SDS011;69137;50.878;8.050;2023-05-16T13:50:03;5.07;;;1.75;;
79670;SDS011;69137;50.878;8.050;2023-05-16T13:52:33;1.33;;;1.10;;
79670;SDS011;69137;50.878;8.050;2023-05-16T13:54:58;3.15;;;1.15;;
79670;SDS011;69137;50.878;8.050;2023-05-16T13:57:24;5.30;;;1.58;;
79670;SDS011;69137;50.878;8.050;2023-05-16T13:59:51;3.17;;;1.45;;
79670;SDS011;69137;50.878;8.050;2023-05-16T14:02:17;5.55;;;1.40;;
79670;SDS011;69137;50.878;8.050;2023-05-16T14:04:42;1.80;;;1.20;;
79670;SDS011;69137;50.878;8.050;2023-05-16T14:07:07;6.78;;;1.60;;
79670;SDS011;69137;50.878;8.050;2023-05-16T14:09:33;2.05;;;1.30;;
79670;SDS011;69137;50.878;8.050;2023-05-16T14:11:59;3.70;;;1.35;;
79670;SDS011;69137;50.878;8.050;2023-05-16T14:14:26;2.88;;;1.10;;
79670;SDS011;69137;50.878;8.050;2023-05-16T14:16:52;5.43;;;1.35;;
79670;SDS011;69137;50.878;8.050;2023-05-16T14:19:17;4.63;;;1.90;;
79670;SDS011;69137;50.878;8.050;2023-05-16T14:21:43;3.13;;;1.45;;
79670;SDS011;69137;50.878;8.050;2023-05-16T14:24:08;2.78;;;1.30;;
79670;SDS011;69137;50.878;8.050;2023-05-16T14:26:33;5.40;;;1.33;;
79670;SDS011;69137;50.878;8.050;2023-05-16T14:28:59;5.85;;;1.33;;
79670;SDS011;69137;50.878;8.050;2023-05-16T14:31:24;3.38;;;1.48;;
79670;SDS011;69137;50.878;8.050;2023-05-16T14:33:50;8.27;;;2.10;;
79670;SDS011;69137;50.878;8.050;2023-05-16T14:36:16;3.42;;;1.40;;
79670;SDS011;69137;50.878;8.050;2023-05-16T14:38:41;3.55;;;1.48;;
79670;SDS011;69137;50.878;8.050;2023-05-16T14:41:07;3.80;;;1.25;;
79670;SDS011;69137;50.878;8.050;2023-05-16T14:43:32;4.13;;;1.65;;
79670;SDS011;69137;50.878;8.050;2023-05-16T14:45:57;5.93;;;1.33;;
79670;SDS011;69137;50.878;8.050;2023-05-16T14:48:23;4.80;;;1.48;;
79670;SDS011;69137;50.878;8.050;2023-05-16T14:50:48;5.95;;;1.40;;
79670;SDS011;69137;50.878;8.050;2023-05-16T14:53:14;4.00;;;1.38;;
79670;SDS011;69137;50.878;8.050;2023-05-16T14:55:40;4.65;;;1.10;;
79670;SDS011;69137;50.878;8.050;2023-05-16T14:58:05;4.78;;;1.50;;
79670;SDS011;69137;50.878;8.050;2023-05-16T15:00:30;6.28;;;1.70;;
79670;SDS011;69137;50.878;8.050;2023-05-16T15:02:56;2.90;;;1.52;;
79670;SDS011;69137;50.878;8.050;2023-05-16T15:05:21;4.90;;;1.60;;
79670;SDS011;69137;50.878;8.050;2023-05-16T15:07:49;1.45;;;1.05;;
79670;SDS011;69137;50.878;8.050;2023-05-16T15:10:15;4.78;;;1.63;;
79670;SDS011;69137;50.878;8.050;2023-05-16T15:12:41;3.33;;;1.55;;
79670;SDS011;69137;50.878;8.050;2023-05-16T15:15:07;4.60;;;1.45;;
79670;SDS011;69137;50.878;8.050;2023-05-16T15:17:37;4.05;;;1.33;;
79670;SDS011;69137;50.878;8.050;2023-05-16T15:20:04;6.07;;;1.48;;
79670;SDS011;69137;50.878;8.050;2023-05-16T15:22:31;3.85;;;1.52;;
79670;SDS011;69137;50.878;8.050;2023-05-16T15:24:57;4.30;;;1.83;;
79670;SDS011;69137;50.878;8.050;2023-05-16T15:27:22;3.17;;;1.13;;
79670;SDS011;69137;50.878;8.050;2023-05-16T15:29:47;4.80;;;1.50;;